createdAt,value
2019-02-21T00:01:27.846Z,41
2019-02-21T00:11:31.341Z,41
2019-02-21T00:21:34.796Z,42
2019-02-21T00:31:40.493Z,42
2019-02-21T00:41:43.958Z,42
2019-02-21T00:51:47.370Z,42
2019-02-21T01:01:50.807Z,42
2019-02-21T01:11:54.251Z,42
2019-02-21T01:21:57.688Z,42
2019-02-21T01:32:01.120Z,41
2019-02-21T01:42:05.592Z,40
2019-02-21T01:52:09.028Z,41
2019-02-21T02:02:13.479Z,41
2019-02-21T02:12:16.925Z,41
2019-02-21T02:22:20.359Z,40
2019-02-21T02:32:23.800Z,40
2019-02-21T02:42:27.375Z,39
2019-02-21T02:52:30.860Z,39
2019-02-21T03:02:34.316Z,39
2019-02-21T03:12:37.828Z,40
2019-02-21T03:22:41.284Z,41
2019-02-21T03:32:44.810Z,42
2019-02-21T03:42:48.273Z,41
2019-02-21T03:52:51.715Z,40
2019-02-21T04:02:55.138Z,41
2019-02-21T04:12:58.570Z,40
2019-02-21T04:23:02.011Z,40
2019-02-21T04:33:05.487Z,40
2019-02-21T04:43:08.941Z,40
2019-02-21T04:53:12.338Z,42
2019-02-21T05:03:15.741Z,41
2019-02-21T05:13:19.213Z,41
2019-02-21T05:23:22.685Z,41
2019-02-21T05:33:26.175Z,43
2019-02-21T05:43:31.926Z,44
2019-02-21T05:53:35.353Z,45
2019-02-21T06:03:38.775Z,43
2019-02-21T06:13:44.995Z,42
2019-02-21T06:23:49.589Z,47
2019-02-21T06:33:53.093Z,55
2019-02-21T06:43:57.251Z,53
2019-02-21T06:54:00.664Z,49
2019-02-21T07:04:04.075Z,44
2019-02-21T07:14:07.530Z,40
2019-02-21T07:24:10.974Z,43
2019-02-21T07:34:14.437Z,43
2019-02-21T07:44:17.969Z,44
2019-02-21T07:54:21.429Z,44
2019-02-21T08:04:24.858Z,47
2019-02-21T08:14:28.298Z,46
2019-02-21T08:24:31.779Z,44
2019-02-21T08:34:35.220Z,42
2019-02-21T08:44:38.646Z,44
2019-02-21T08:54:42.071Z,43
2019-02-21T09:04:45.517Z,43
2019-02-21T09:14:48.900Z,43
2019-02-21T09:24:52.335Z,43
2019-02-21T09:34:55.784Z,43
2019-02-21T09:44:59.302Z,43
2019-02-21T09:55:02.734Z,44
2019-02-21T10:05:06.269Z,43
2019-02-21T10:15:09.700Z,43
2019-02-21T10:25:13.104Z,44
2019-02-21T10:35:16.512Z,42
2019-02-21T10:45:19.982Z,42
2019-02-21T10:55:23.439Z,42
2019-02-21T11:05:26.893Z,42
2019-02-21T11:15:30.352Z,42
2019-02-21T11:25:34.767Z,41
2019-02-21T11:35:38.185Z,41
2019-02-21T11:45:42.975Z,40
2019-02-21T11:56:00.340Z,40
2019-02-21T12:06:03.790Z,40
2019-02-21T12:16:07.215Z,39
2019-02-21T12:26:10.673Z,39
2019-02-21T12:36:14.203Z,40
2019-02-21T12:46:17.671Z,40
2019-02-21T12:56:21.068Z,40
2019-02-21T13:06:24.524Z,40
2019-02-21T13:16:27.933Z,40
2019-02-21T13:26:31.327Z,40
2019-02-21T13:36:34.785Z,41
2019-02-21T13:46:42.054Z,41
2019-02-21T13:56:45.713Z,41
2019-02-21T14:06:49.150Z,41
2019-02-21T14:16:52.575Z,40
2019-02-21T14:26:55.996Z,40
2019-02-21T14:37:01.542Z,40
2019-02-21T14:47:07.749Z,39
2019-02-21T14:57:11.743Z,39
2019-02-21T15:07:15.196Z,39
2019-02-21T15:17:18.938Z,39
2019-02-21T15:27:23.848Z,39
2019-02-21T15:37:27.310Z,41
2019-02-21T15:47:30.758Z,41
2019-02-21T15:57:34.235Z,42
2019-02-21T16:07:37.701Z,42
2019-02-21T16:17:41.200Z,42
2019-02-21T16:27:44.651Z,42
2019-02-21T16:37:48.084Z,42
2019-02-21T16:47:51.561Z,44
2019-02-21T16:57:54.998Z,42
2019-02-21T17:07:58.468Z,43
2019-02-21T17:18:04.246Z,43
2019-02-21T17:28:07.701Z,44
2019-02-21T17:38:11.115Z,48
2019-02-21T17:48:14.556Z,48
2019-02-21T17:58:18.005Z,46
2019-02-21T18:08:21.431Z,48
2019-02-21T18:18:24.870Z,53
2019-02-21T18:28:28.298Z,47
2019-02-21T18:38:31.733Z,50
2019-02-21T18:48:35.139Z,50
2019-02-21T18:58:38.688Z,45
2019-02-21T19:08:42.131Z,46
2019-02-21T19:18:45.576Z,46
2019-02-21T19:28:49.022Z,46
2019-02-21T19:38:52.438Z,48
2019-02-21T19:48:55.878Z,49
2019-02-21T19:58:59.346Z,49
2019-02-21T20:09:02.811Z,52
2019-02-21T20:19:06.261Z,46
2019-02-21T20:29:09.716Z,46
2019-02-21T20:39:13.162Z,45
2019-02-21T20:49:16.618Z,46
2019-02-21T20:59:20.062Z,46
2019-02-21T21:09:23.532Z,49
2019-02-21T21:19:27.958Z,48
2019-02-21T21:29:31.423Z,48
2019-02-21T21:39:34.870Z,44
2019-02-21T21:49:38.299Z,45
2019-02-21T21:59:41.748Z,46
2019-02-21T22:09:45.195Z,43
2019-02-21T22:19:48.637Z,42
2019-02-21T22:29:52.083Z,46
2019-02-21T22:39:56.510Z,44
2019-02-21T22:49:59.908Z,45
2019-02-21T23:00:03.391Z,44
2019-02-21T23:10:06.827Z,42
2019-02-21T23:20:10.241Z,41
2019-02-21T23:30:13.661Z,41
2019-02-21T23:40:17.095Z,42
2019-02-21T23:50:20.552Z,41
